createdAt,value
2019-05-25T00:00:58.451Z,100457.66
2019-05-25T00:04:05.293Z,100452.66
2019-05-25T00:07:11.675Z,100454.92
2019-05-25T00:10:18.167Z,100448.59
2019-05-25T00:13:24.519Z,100451.45
2019-05-25T00:16:31.362Z,100444.48
2019-05-25T00:19:37.741Z,100443.56
2019-05-25T00:22:44.048Z,100456.30
2019-05-25T00:25:50.425Z,100455.55
2019-05-25T00:28:56.837Z,100436.98
2019-05-25T00:32:03.263Z,100436.98
2019-05-25T00:35:10.653Z,100450.39
2019-05-25T00:38:17.083Z,100446.06
2019-05-25T00:41:23.494Z,100449.23
2019-05-25T00:44:29.854Z,100447.80
2019-05-25T00:47:36.210Z,100450.84
2019-05-25T00:50:42.556Z,100453.49
2019-05-25T00:53:49.393Z,100447.20
2019-05-25T00:56:55.839Z,100447.64
2019-05-25T01:00:02.196Z,100437.66
2019-05-25T01:03:10.491Z,100441.43
2019-05-25T01:06:17.255Z,100440.83
2019-05-25T01:09:23.634Z,100445.36
2019-05-25T01:12:30.115Z,100437.34
2019-05-25T01:15:36.640Z,100435.06
2019-05-25T01:18:43.087Z,100429.61
2019-05-25T01:21:49.545Z,100434.58
2019-05-25T01:24:55.988Z,100426.33
2019-05-25T01:28:02.361Z,100438.67
2019-05-25T01:31:08.921Z,100437.31
2019-05-25T01:34:15.344Z,100436.10
2019-05-25T01:37:21.725Z,100432.58
2019-05-25T01:40:28.068Z,100432.90
2019-05-25T01:43:34.485Z,100427.65
2019-05-25T01:46:40.846Z,100432.50
2019-05-25T01:49:47.759Z,100429.38
2019-05-25T01:52:54.129Z,100432.63
2019-05-25T01:56:01.179Z,100430.66
2019-05-25T01:59:07.526Z,100428.61
2019-05-25T02:02:14.201Z,100423.76
2019-05-25T02:05:20.565Z,100429.21
2019-05-25T02:08:27.390Z,100420.27
2019-05-25T02:11:33.783Z,100423.11
2019-05-25T02:14:40.186Z,100424.11
2019-05-25T02:17:46.582Z,100432.05
2019-05-25T02:20:53.041Z,100428.72
2019-05-25T02:23:59.791Z,100430.91
2019-05-25T02:27:06.650Z,100421.30
2019-05-25T02:30:13.118Z,100435.44
2019-05-25T02:33:19.559Z,100434.00
2019-05-25T02:36:25.962Z,100429.82
2019-05-25T02:39:32.359Z,100429.73
2019-05-25T02:42:38.792Z,100427.30
2019-05-25T02:45:45.601Z,100428.98
2019-05-25T02:48:51.989Z,100424.89
2019-05-25T02:51:58.343Z,100431.70
2019-05-25T02:55:05.235Z,100431.70
2019-05-25T02:58:11.956Z,100430.95
2019-05-25T03:01:18.293Z,100429.59
2019-05-25T03:04:24.690Z,100436.11
2019-05-25T03:07:30.942Z,100437.16
2019-05-25T03:10:37.813Z,100436.11
2019-05-25T03:13:44.565Z,100440.92
2019-05-25T03:16:51.072Z,100439.88
2019-05-25T03:19:57.578Z,100426.86
2019-05-25T03:23:04.206Z,100427.30
2019-05-25T03:26:10.570Z,100432.23
2019-05-25T03:29:17.086Z,100436.11
2019-05-25T03:32:23.438Z,100436.64
2019-05-25T03:35:30.001Z,100440.48
2019-05-25T03:38:36.327Z,100436.11
2019-05-25T03:41:42.880Z,100435.56
2019-05-25T03:44:49.295Z,100441.56
2019-05-25T03:47:55.677Z,100438.00
2019-05-25T03:51:01.945Z,100444.28
2019-05-25T03:54:08.481Z,100441.68
2019-05-25T03:57:14.882Z,100441.68
2019-05-25T04:00:35.316Z,100449.27
2019-05-25T04:03:41.653Z,100451.27
2019-05-25T04:06:48.122Z,100446.11
2019-05-25T04:09:54.487Z,100443.21
2019-05-25T04:13:01.075Z,100448.39
2019-05-25T04:16:07.419Z,100451.20
2019-05-25T04:19:14.137Z,100452.12
2019-05-25T04:22:20.403Z,100442.35
2019-05-25T04:25:26.903Z,100436.14
2019-05-25T04:28:33.183Z,100438.67
2019-05-25T04:31:39.680Z,100444.48
2019-05-25T04:34:46.017Z,100449.50
2019-05-25T04:37:52.532Z,100455.03
2019-05-25T04:40:58.979Z,100449.05
2019-05-25T04:44:05.534Z,100453.75
2019-05-25T04:47:26.185Z,100454.70
2019-05-25T04:50:20.041Z,100454.27
2019-05-25T04:53:26.506Z,100460.32
2019-05-25T04:56:39.544Z,100459.28
2019-05-25T04:59:41.344Z,100460.48
2019-05-25T05:02:48.269Z,100458.16
2019-05-25T05:05:54.645Z,100462.33
2019-05-25T05:09:01.076Z,100465.21
2019-05-25T05:12:08.696Z,100467.50
2019-05-25T05:15:15.575Z,100471.88
2019-05-25T05:18:21.998Z,100466.58
2019-05-25T05:21:28.365Z,100461.28
2019-05-25T05:24:34.633Z,100467.21
2019-05-25T05:27:41.020Z,100469.49
2019-05-25T05:30:47.411Z,100464.16
2019-05-25T05:33:53.835Z,100467.81
2019-05-25T05:37:00.183Z,100467.05
2019-05-25T05:40:08.850Z,100467.05
2019-05-25T05:43:15.209Z,100483.12
2019-05-25T05:46:21.907Z,100480.87
2019-05-25T05:49:28.525Z,100484.72
2019-05-25T05:52:38.304Z,100489.97
2019-05-25T05:55:44.719Z,100489.28
2019-05-25T05:58:51.139Z,100492.55
2019-05-25T06:01:57.497Z,100494.20
2019-05-25T06:05:04.567Z,100500.89
2019-05-25T06:08:10.921Z,100492.19
2019-05-25T06:11:17.609Z,100501.05
2019-05-25T06:14:23.897Z,100503.46
2019-05-25T06:17:30.495Z,100513.41
2019-05-25T06:20:36.800Z,100518.78
2019-05-25T06:23:43.194Z,100522.28
2019-05-25T06:26:49.571Z,100517.78
2019-05-25T06:29:56.379Z,100528.17
2019-05-25T06:33:02.642Z,100529.39
2019-05-25T06:36:09.019Z,100536.09
2019-05-25T06:39:17.622Z,100538.50
2019-05-25T06:42:23.922Z,100533.80
2019-05-25T06:45:30.312Z,100540.02
2019-05-25T06:48:37.133Z,100542.20
2019-05-25T06:51:43.569Z,100538.17
2019-05-25T06:54:50.157Z,100550.19
2019-05-25T06:57:56.528Z,100554.50
2019-05-25T07:01:02.965Z,100560.03
2019-05-25T07:04:09.517Z,100552.96
2019-05-25T07:07:17.210Z,100554.50
2019-05-25T07:10:25.534Z,100559.72
2019-05-25T07:13:31.894Z,100560.95
2019-05-25T07:16:38.393Z,100564.59
2019-05-25T07:19:45.286Z,100566.69
2019-05-25T07:22:52.475Z,100563.44
2019-05-25T07:25:59.128Z,100570.17
2019-05-25T07:29:05.580Z,100568.59
2019-05-25T07:32:12.120Z,100570.52
2019-05-25T07:35:18.542Z,100578.84
2019-05-25T07:38:25.024Z,100574.36
2019-05-25T07:41:33.659Z,100587.95
2019-05-25T07:44:40.197Z,100600.63
2019-05-25T07:47:46.529Z,100607.15
2019-05-25T07:50:53.034Z,100612.23
2019-05-25T07:54:00.388Z,100620.72
2019-05-25T07:57:07.837Z,100618.83
2019-05-25T08:00:14.403Z,100623.00
2019-05-25T08:03:20.801Z,100632.42
2019-05-25T08:06:27.142Z,100624.75
2019-05-25T08:09:34.011Z,100622.17
2019-05-25T08:12:40.279Z,100620.14
2019-05-25T08:15:46.916Z,100584.91
2019-05-25T08:18:53.212Z,100626.52
2019-05-25T08:22:00.066Z,100636.90
2019-05-25T08:25:06.657Z,100643.56
2019-05-25T08:28:12.920Z,100658.06
2019-05-25T08:31:19.275Z,100660.33
2019-05-25T08:34:25.764Z,100660.94
2019-05-25T08:37:32.281Z,100653.81
2019-05-25T08:40:39.028Z,100672.95
2019-05-25T08:43:47.589Z,100673.41
2019-05-25T08:46:57.235Z,100677.34
2019-05-25T08:50:07.592Z,100680.67
2019-05-25T08:53:16.311Z,100695.10
2019-05-25T08:56:22.723Z,100692.94
2019-05-25T08:59:29.524Z,100700.56
2019-05-25T09:02:35.947Z,100707.36
2019-05-25T09:05:42.380Z,100714.95
2019-05-25T09:08:48.777Z,100717.69
2019-05-25T09:11:55.401Z,100724.19
2019-05-25T09:15:01.740Z,100738.48
2019-05-25T09:18:11.171Z,100742.02
2019-05-25T09:21:17.849Z,100640.05
2019-05-25T09:24:25.183Z,100747.32
2019-05-25T09:27:31.516Z,100741.58
2019-05-25T09:30:37.996Z,100740.39
2019-05-25T09:33:44.345Z,100740.33
2019-05-25T09:36:50.974Z,100744.27
2019-05-25T09:39:58.280Z,100748.81
2019-05-25T09:43:04.665Z,100759.17
2019-05-25T09:46:11.036Z,100764.77
2019-05-25T09:49:17.555Z,100763.43
2019-05-25T09:52:23.924Z,100763.77
2019-05-25T09:55:30.416Z,100773.94
2019-05-25T09:58:36.873Z,100758.69
2019-05-25T10:01:43.410Z,100769.42
2019-05-25T10:04:49.751Z,100771.36
2019-05-25T10:07:59.075Z,100770.39
2019-05-25T10:11:05.532Z,100781.86
2019-05-25T10:14:12.704Z,100777.06
2019-05-25T10:17:18.981Z,100781.41
2019-05-25T10:20:26.279Z,100779.45
2019-05-25T10:23:32.631Z,100777.00
2019-05-25T10:26:39.402Z,100786.78
2019-05-25T10:29:45.914Z,100786.78
2019-05-25T10:32:52.347Z,100778.34
2019-05-25T10:36:01.635Z,100789.11
2019-05-25T10:39:09.020Z,100788.05
2019-05-25T10:42:27.510Z,100788.58
2019-05-25T10:45:34.089Z,100786.71
2019-05-25T10:48:40.534Z,100793.55
2019-05-25T10:51:47.163Z,100799.02
2019-05-25T10:54:53.507Z,100806.25
2019-05-25T10:57:59.983Z,100795.75
2019-05-25T11:01:06.401Z,100801.73
2019-05-25T11:04:12.793Z,100804.69
2019-05-25T11:07:19.553Z,100799.91
2019-05-25T11:10:26.169Z,100788.61
2019-05-25T11:13:33.647Z,100788.61
2019-05-25T11:16:40.574Z,100812.68
2019-05-25T11:19:46.944Z,100816.81
2019-05-25T11:22:53.415Z,100816.27
2019-05-25T11:25:59.791Z,100820.37
2019-05-25T11:29:07.000Z,100823.78
2019-05-25T11:32:13.452Z,100816.66
2019-05-25T11:35:20.995Z,100816.66
2019-05-25T11:38:27.701Z,100825.38
2019-05-25T11:41:34.160Z,100823.48
2019-05-25T11:44:40.516Z,100821.20
2019-05-25T11:47:47.026Z,100818.61
2019-05-25T11:50:53.377Z,100825.14
2019-05-25T11:53:59.988Z,100821.18
2019-05-25T11:57:06.271Z,100822.93
2019-05-25T12:00:24.240Z,100820.66
2019-05-25T12:03:22.399Z,100826.80
2019-05-25T12:06:29.138Z,100828.94
2019-05-25T12:09:36.255Z,100826.12
2019-05-25T12:12:43.991Z,100837.08
2019-05-25T12:15:50.323Z,100830.97
2019-05-25T12:18:57.028Z,100822.89
2019-05-25T12:22:03.376Z,100839.27
2019-05-25T12:25:09.911Z,100822.17
2019-05-25T12:28:34.678Z,100826.75
2019-05-25T12:31:41.517Z,100819.73
2019-05-25T12:34:47.910Z,100815.58
2019-05-25T12:37:54.275Z,100831.30
2019-05-25T12:41:00.622Z,100836.00
2019-05-25T12:44:07.256Z,100832.14
2019-05-25T12:47:14.577Z,100855.39
2019-05-25T12:50:21.675Z,100858.48
2019-05-25T12:53:28.217Z,100865.92
2019-05-25T12:56:35.838Z,100837.30
2019-05-25T12:59:42.146Z,100837.30
2019-05-25T13:02:48.613Z,100858.48
2019-05-25T13:05:54.974Z,100843.16
2019-05-25T13:09:01.508Z,100851.09
2019-05-25T13:12:08.824Z,100857.55
2019-05-25T13:15:15.660Z,100849.11
2019-05-25T13:18:22.102Z,100855.96
2019-05-25T13:21:31.537Z,100845.73
2019-05-25T13:24:38.056Z,100844.45
2019-05-25T13:27:44.625Z,100854.61
2019-05-25T13:30:51.066Z,100861.55
2019-05-25T13:33:57.723Z,100847.34
2019-05-25T13:37:04.149Z,100852.02
2019-05-25T13:40:11.050Z,100851.98
2019-05-25T13:43:17.327Z,100856.86
2019-05-25T13:46:23.950Z,100853.98
2019-05-25T13:49:30.348Z,100856.05
2019-05-25T13:52:36.745Z,100857.23
2019-05-25T13:55:43.199Z,100855.46
2019-05-25T13:58:49.720Z,100861.98
2019-05-25T14:01:56.109Z,100848.48
2019-05-25T14:05:02.733Z,100847.34
2019-05-25T14:08:09.181Z,100856.94
2019-05-25T14:11:15.695Z,100848.01
2019-05-25T14:14:24.410Z,100843.51
2019-05-25T14:17:30.249Z,100838.45
2019-05-25T14:20:36.949Z,100845.55
2019-05-25T14:23:44.237Z,100823.76
2019-05-25T14:26:50.978Z,100820.78
2019-05-25T14:29:57.478Z,100817.11
2019-05-25T14:33:03.996Z,100825.29
2019-05-25T14:36:11.291Z,100819.29
2019-05-25T14:39:17.716Z,100829.60
2019-05-25T14:42:24.278Z,100831.23
2019-05-25T14:45:30.887Z,100835.70
2019-05-25T14:48:37.399Z,100830.23
2019-05-25T14:51:43.851Z,100837.38
2019-05-25T14:54:51.401Z,100825.03
2019-05-25T14:57:58.221Z,100824.02
2019-05-25T15:01:04.866Z,100826.05
2019-05-25T15:04:11.330Z,100816.48
2019-05-25T15:07:17.824Z,100817.56
2019-05-25T15:10:24.269Z,100819.41
2019-05-25T15:13:31.246Z,100826.97
2019-05-25T15:16:39.389Z,100804.41
2019-05-25T15:19:46.223Z,100804.41
2019-05-25T15:22:52.605Z,100818.02
2019-05-25T15:25:59.495Z,100821.48
2019-05-25T15:29:05.907Z,100829.70
2019-05-25T15:32:20.181Z,100807.47
2019-05-25T15:35:20.873Z,100822.84
2019-05-25T15:38:27.629Z,100816.72
2019-05-25T15:41:33.982Z,100826.45
2019-05-25T15:44:40.372Z,100814.41
2019-05-25T15:47:46.792Z,100818.80
2019-05-25T15:50:53.465Z,100819.59
2019-05-25T15:54:00.017Z,100819.36
2019-05-25T15:57:06.929Z,100816.91
2019-05-25T16:00:15.544Z,100804.98
2019-05-25T16:03:22.126Z,100801.84
2019-05-25T16:06:28.615Z,100801.58
2019-05-25T16:09:35.242Z,100800.95
2019-05-25T16:12:44.110Z,100800.98
2019-05-25T16:15:50.971Z,100802.13
2019-05-25T16:18:57.343Z,100803.36
2019-05-25T16:22:03.894Z,100800.98
2019-05-25T16:25:10.898Z,100796.87
2019-05-25T16:28:18.339Z,100796.87
2019-05-25T16:31:25.852Z,100800.73
2019-05-25T16:34:32.760Z,100792.32
2019-05-25T16:37:39.593Z,100802.81
2019-05-25T16:40:46.533Z,100801.41
2019-05-25T16:43:53.080Z,100805.94
2019-05-25T16:46:59.681Z,100809.33
2019-05-25T16:50:06.363Z,100798.71
2019-05-25T16:53:13.921Z,100799.96
2019-05-25T16:56:20.370Z,100792.94
2019-05-25T16:59:26.805Z,100798.11
2019-05-25T17:02:33.192Z,100794.48
2019-05-25T17:05:40.097Z,100793.95
2019-05-25T17:08:48.325Z,100787.34
2019-05-25T17:11:54.904Z,100784.14
2019-05-25T17:15:01.405Z,100780.42
2019-05-25T17:18:08.291Z,100784.92
2019-05-25T17:21:14.753Z,100777.97
2019-05-25T17:24:21.262Z,100768.56
2019-05-25T17:27:28.755Z,100771.17
2019-05-25T17:30:41.953Z,100768.34
2019-05-25T17:33:48.356Z,100768.05
2019-05-25T17:36:54.913Z,100767.62
2019-05-25T17:40:01.334Z,100763.77
2019-05-25T17:43:08.286Z,100771.05
2019-05-25T17:46:14.735Z,100768.45
2019-05-25T17:49:21.284Z,100761.58
2019-05-25T17:52:27.745Z,100757.27
2019-05-25T17:55:34.223Z,100756.70
2019-05-25T17:58:40.512Z,100752.13
2019-05-25T18:01:47.630Z,100754.22
2019-05-25T18:04:54.114Z,100750.59
2019-05-25T18:08:00.618Z,100752.66
2019-05-25T18:11:07.101Z,100750.31
2019-05-25T18:14:13.590Z,100738.44
2019-05-25T18:17:21.142Z,100743.18
2019-05-25T18:20:28.896Z,100742.52
2019-05-25T18:23:35.309Z,100741.64
2019-05-25T18:26:41.950Z,100726.88
2019-05-25T18:29:48.362Z,100725.61
2019-05-25T18:32:55.273Z,100730.52
2019-05-25T18:36:04.430Z,100734.95
2019-05-25T18:39:10.985Z,100735.14
2019-05-25T18:42:17.428Z,100735.37
2019-05-25T18:45:24.156Z,100741.31
2019-05-25T18:48:34.271Z,100746.30
2019-05-25T18:51:38.654Z,100740.52
2019-05-25T18:54:45.094Z,100736.29
2019-05-25T18:57:51.843Z,100730.70
2019-05-25T19:00:58.570Z,100736.16
2019-05-25T19:04:05.503Z,100726.28
2019-05-25T19:07:11.945Z,100726.28
2019-05-25T19:10:18.600Z,100728.54
2019-05-25T19:13:24.952Z,100733.62
2019-05-25T19:16:33.367Z,100725.23
2019-05-25T19:19:40.033Z,100715.91
2019-05-25T19:22:46.654Z,100726.25
2019-05-25T19:25:53.079Z,100718.70
2019-05-25T19:29:00.047Z,100709.55
2019-05-25T19:32:06.386Z,100720.09
2019-05-25T19:35:15.038Z,100725.30
2019-05-25T19:38:21.396Z,100721.50
2019-05-25T19:41:27.680Z,100717.97
2019-05-25T19:44:36.501Z,100710.53
2019-05-25T19:47:43.469Z,100701.93
2019-05-25T19:50:50.232Z,100693.23
2019-05-25T19:53:56.631Z,100689.11
2019-05-25T19:57:03.072Z,100698.52
2019-05-25T20:00:09.910Z,100706.03
2019-05-25T20:03:18.812Z,100691.63
2019-05-25T20:06:27.231Z,100691.28
2019-05-25T20:09:33.576Z,100691.20
2019-05-25T20:12:41.538Z,100695.20
2019-05-25T20:15:47.979Z,100702.13
2019-05-25T20:18:54.532Z,100694.06
2019-05-25T20:22:00.826Z,100701.02
2019-05-25T20:25:07.475Z,100688.26
2019-05-25T20:28:13.940Z,100682.96
2019-05-25T20:31:20.913Z,100682.96
2019-05-25T20:34:27.733Z,100686.20
2019-05-25T20:37:34.620Z,100677.30
2019-05-25T20:40:41.108Z,100682.16
2019-05-25T20:43:47.527Z,100681.06
2019-05-25T20:46:54.247Z,100684.00
2019-05-25T20:50:01.055Z,100677.48
2019-05-25T20:53:08.009Z,100676.75
2019-05-25T20:56:14.477Z,100669.07
2019-05-25T20:59:20.852Z,100665.23
2019-05-25T21:02:27.615Z,100656.09
2019-05-25T21:05:48.970Z,100653.84
2019-05-25T21:08:43.625Z,100653.11
2019-05-25T21:11:50.057Z,100648.68
2019-05-25T21:14:56.579Z,100647.45
2019-05-25T21:18:03.290Z,100639.10
2019-05-25T21:21:11.111Z,100636.83
2019-05-25T21:24:17.891Z,100624.70
2019-05-25T21:27:24.308Z,100624.72
2019-05-25T21:30:31.919Z,100620.61
2019-05-25T21:33:38.339Z,100620.02
2019-05-25T21:36:46.027Z,100615.45
2019-05-25T21:39:53.587Z,100606.67
2019-05-25T21:43:02.580Z,100602.63
2019-05-25T21:46:09.122Z,100600.60
2019-05-25T21:49:16.785Z,100591.95
2019-05-25T21:52:23.820Z,100588.31
2019-05-25T21:55:30.181Z,100583.28
2019-05-25T21:58:37.622Z,100581.73
2019-05-25T22:01:46.000Z,100578.45
2019-05-25T22:04:52.743Z,100566.44
2019-05-25T22:07:59.511Z,100575.27
2019-05-25T22:11:06.007Z,100570.27
2019-05-25T22:14:12.480Z,100570.27
2019-05-25T22:17:19.391Z,100559.19
2019-05-25T22:20:26.554Z,100553.26
2019-05-25T22:23:32.815Z,100551.39
2019-05-25T22:26:39.391Z,100550.03
2019-05-25T22:29:45.925Z,100552.77
2019-05-25T22:32:54.164Z,100544.16
2019-05-25T22:36:01.003Z,100536.36
2019-05-25T22:39:08.372Z,100540.06
2019-05-25T22:42:15.231Z,100533.75
2019-05-25T22:45:21.958Z,100525.27
2019-05-25T22:48:28.303Z,100513.24
2019-05-25T22:51:35.174Z,100513.93
2019-05-25T22:54:42.261Z,100511.41
2019-05-25T22:57:49.031Z,100515.23
2019-05-25T23:00:56.097Z,100507.28
2019-05-25T23:04:02.966Z,100499.23
2019-05-25T23:07:09.722Z,100495.59
2019-05-25T23:10:16.217Z,100490.19
2019-05-25T23:13:22.482Z,100480.89
2019-05-25T23:16:29.376Z,100476.77
2019-05-25T23:19:36.163Z,100471.26
2019-05-25T23:22:43.000Z,100475.27
2019-05-25T23:25:49.708Z,100472.31
2019-05-25T23:28:56.422Z,100466.88
2019-05-25T23:32:02.901Z,100456.84
2019-05-25T23:35:09.466Z,100443.39
2019-05-25T23:38:16.572Z,100434.66
2019-05-25T23:41:23.127Z,100434.66
2019-05-25T23:44:29.908Z,100435.19
2019-05-25T23:47:36.428Z,100426.05
2019-05-25T23:50:43.360Z,100430.27
2019-05-25T23:53:49.921Z,100424.48
2019-05-25T23:56:57.231Z,100419.98
